sensor_id;sensor_type;location;lat;lon;timestamp;pressure;altitude;pressure_sealevel;temperature;humidity
64095;BME280;50353;51.420;5.682;2022-12-20T00:00:57;101136.66;;;11.10;79.57
64095;BME280;50353;51.420;5.682;2022-12-20T00:03:22;101140.81;;;11.75;77.09
64095;BME280;50353;51.420;5.682;2022-12-20T00:05:48;101143.41;;;11.61;77.66
64095;BME280;50353;51.420;5.682;2022-12-20T00:08:13;101150.56;;;11.44;78.59
64095;BME280;50353;51.420;5.682;2022-12-20T00:10:41;101150.28;;;11.49;77.67
64095;BME280;50353;51.420;5.682;2022-12-20T00:13:07;101159.19;;;11.48;77.90
64095;BME280;50353;51.420;5.682;2022-12-20T00:15:32;101160.53;;;11.25;78.73
64095;BME280;50353;51.420;5.682;2022-12-20T00:17:58;101153.25;;;11.28;78.90
64095;BME280;50353;51.420;5.682;2022-12-20T00:20:24;101160.63;;;11.54;77.14
64095;BME280;50353;51.420;5.682;2022-12-20T00:22:50;101158.97;;;11.67;77.03
64095;BME280;50353;51.420;5.682;2022-12-20T00:25:15;101149.69;;;11.74;75.95
64095;BME280;50353;51.420;5.682;2022-12-20T00:27:41;101136.97;;;11.50;77.52
64095;BME280;50353;51.420;5.682;2022-12-20T00:30:06;101143.72;;;11.56;77.02
64095;BME280;50353;51.420;5.682;2022-12-20T00:32:32;101133.41;;;11.80;76.51
64095;BME280;50353;51.420;5.682;2022-12-20T00:34:57;101139.59;;;11.95;76.37
64095;BME280;50353;51.420;5.682;2022-12-20T00:37:22;101139.09;;;11.74;76.05
64095;BME280;50353;51.420;5.682;2022-12-20T00:39:48;101124.25;;;11.72;76.60
64095;BME280;50353;51.420;5.682;2022-12-20T00:42:13;101132.03;;;11.44;77.50
64095;BME280;50353;51.420;5.682;2022-12-20T00:44:39;101129.94;;;11.35;78.01
64095;BME280;50353;51.420;5.682;2022-12-20T00:47:05;101123.41;;;11.71;76.20
64095;BME280;50353;51.420;5.682;2022-12-20T00:49:30;101119.22;;;11.81;75.96
64095;BME280;50353;51.420;5.682;2022-12-20T00:51:55;101118.88;;;11.88;76.35
64095;BME280;50353;51.420;5.682;2022-12-20T00:54:20;101108.72;;;11.65;76.97
64095;BME280;50353;51.420;5.682;2022-12-20T00:56:46;101111.56;;;11.91;76.36
64095;BME280;50353;51.420;5.682;2022-12-20T00:59:11;101105.03;;;11.54;77.72
64095;BME280;50353;51.420;5.682;2022-12-20T01:01:36;101115.16;;;11.76;77.16
64095;BME280;50353;51.420;5.682;2022-12-20T01:04:02;101118.56;;;11.92;76.13
64095;BME280;50353;51.420;5.682;2022-12-20T01:06:28;101114.44;;;12.17;74.71
64095;BME280;50353;51.420;5.682;2022-12-20T01:08:54;101109.88;;;12.33;75.39
64095;BME280;50353;51.420;5.682;2022-12-20T01:11:23;101115.09;;;12.06;76.21
64095;BME280;50353;51.420;5.682;2022-12-20T01:13:52;101101.06;;;11.90;77.01
64095;BME280;50353;51.420;5.682;2022-12-20T01:16:27;101122.06;;;11.93;77.89
64095;BME280;50353;51.420;5.682;2022-12-20T01:18:53;101128.47;;;11.45;80.15
64095;BME280;50353;51.420;5.682;2022-12-20T01:21:20;101130.59;;;11.83;78.77
64095;BME280;50353;51.420;5.682;2022-12-20T01:23:46;101136.06;;;11.66;79.01
64095;BME280;50353;51.420;5.682;2022-12-20T01:26:14;101133.38;;;11.52;80.71
64095;BME280;50353;51.420;5.682;2022-12-20T01:28:42;101141.13;;;11.55;80.67
64095;BME280;50353;51.420;5.682;2022-12-20T01:31:10;101128.88;;;11.68;81.04
64095;BME280;50353;51.420;5.682;2022-12-20T01:33:36;101127.50;;;12.06;78.60
64095;BME280;50353;51.420;5.682;2022-12-20T01:36:05;101124.06;;;11.89;80.19
64095;BME280;50353;51.420;5.682;2022-12-20T01:38:31;101133.91;;;11.87;81.46
64095;BME280;50353;51.420;5.682;2022-12-20T01:40:56;101123.16;;;11.45;83.29
64095;BME280;50353;51.420;5.682;2022-12-20T01:43:22;101130.66;;;11.82;81.79
64095;BME280;50353;51.420;5.682;2022-12-20T01:45:48;101124.03;;;11.75;82.72
64095;BME280;50353;51.420;5.682;2022-12-20T01:48:21;101111.94;;;11.71;82.77
64095;BME280;50353;51.420;5.682;2022-12-20T01:50:50;101120.69;;;11.42;85.13
64095;BME280;50353;51.420;5.682;2022-12-20T01:53:17;101125.41;;;11.37;86.00
64095;BME280;50353;51.420;5.682;2022-12-20T01:55:44;101114.13;;;11.78;84.04
64095;BME280;50353;51.420;5.682;2022-12-20T01:58:13;101093.25;;;11.29;86.35
64095;BME280;50353;51.420;5.682;2022-12-20T02:00:40;101091.00;;;11.37;86.70
64095;BME280;50353;51.420;5.682;2022-12-20T02:03:08;101076.06;;;11.50;86.40
64095;BME280;50353;51.420;5.682;2022-12-20T02:05:36;101077.03;;;11.05;88.47
64095;BME280;50353;51.420;5.682;2022-12-20T02:08:03;101085.72;;;11.52;86.48
64095;BME280;50353;51.420;5.682;2022-12-20T02:13:27;101073.66;;;11.17;86.57
64095;BME280;50353;51.420;5.682;2022-12-20T02:15:57;101094.97;;;11.44;86.03
64095;BME280;50353;51.420;5.682;2022-12-20T02:18:27;101061.59;;;10.97;87.64
64095;BME280;50353;51.420;5.682;2022-12-20T02:23:40;101076.56;;;11.12;87.08
64095;BME280;50353;51.420;5.682;2022-12-20T02:29:15;101083.22;;;11.20;85.98
64095;BME280;50353;51.420;5.682;2022-12-20T02:32:11;101078.25;;;11.44;84.74
64095;BME280;50353;51.420;5.682;2022-12-20T02:34:35;101067.97;;;11.54;85.34
64095;BME280;50353;51.420;5.682;2022-12-20T02:37:02;101064.72;;;11.48;85.03
64095;BME280;50353;51.420;5.682;2022-12-20T02:39:28;101075.91;;;11.54;84.04
64095;BME280;50353;51.420;5.682;2022-12-20T02:42:09;101065.69;;;11.62;84.22
64095;BME280;50353;51.420;5.682;2022-12-20T02:44:39;101051.91;;;11.71;83.49
64095;BME280;50353;51.420;5.682;2022-12-20T02:47:30;101045.16;;;11.80;82.75
64095;BME280;50353;51.420;5.682;2022-12-20T02:49:58;101045.72;;;11.71;82.68
64095;BME280;50353;51.420;5.682;2022-12-20T02:52:26;101033.91;;;11.76;82.42
64095;BME280;50353;51.420;5.682;2022-12-20T02:54:55;101042.06;;;12.02;82.01
64095;BME280;50353;51.420;5.682;2022-12-20T03:00:37;101030.50;;;11.74;82.28
64095;BME280;50353;51.420;5.682;2022-12-20T03:03:05;101021.16;;;11.97;81.12
64095;BME280;50353;51.420;5.682;2022-12-20T03:05:51;101035.25;;;11.69;82.48
64095;BME280;50353;51.420;5.682;2022-12-20T03:08:17;101033.06;;;11.61;82.21
64095;BME280;50353;51.420;5.682;2022-12-20T03:10:43;101033.25;;;12.02;81.89
64095;BME280;50353;51.420;5.682;2022-12-20T03:13:08;101029.28;;;11.51;83.14
64095;BME280;50353;51.420;5.682;2022-12-20T03:15:34;101037.31;;;11.78;82.40
64095;BME280;50353;51.420;5.682;2022-12-20T03:17:59;101039.00;;;11.50;83.75
64095;BME280;50353;51.420;5.682;2022-12-20T03:20:24;101042.59;;;11.64;82.58
64095;BME280;50353;51.420;5.682;2022-12-20T03:22:50;101034.75;;;11.62;82.99
64095;BME280;50353;51.420;5.682;2022-12-20T03:25:15;101029.94;;;11.83;81.84
64095;BME280;50353;51.420;5.682;2022-12-20T03:27:41;101035.72;;;12.05;81.68
64095;BME280;50353;51.420;5.682;2022-12-20T03:30:06;101021.00;;;12.28;80.33
64095;BME280;50353;51.420;5.682;2022-12-20T03:32:32;101022.56;;;12.03;80.75
64095;BME280;50353;51.420;5.682;2022-12-20T03:34:57;101009.78;;;12.37;79.80
64095;BME280;50353;51.420;5.682;2022-12-20T03:37:23;101013.84;;;12.15;79.83
64095;BME280;50353;51.420;5.682;2022-12-20T03:39:48;101016.97;;;11.93;81.07
64095;BME280;50353;51.420;5.682;2022-12-20T03:42:14;101016.03;;;11.80;81.66
64095;BME280;50353;51.420;5.682;2022-12-20T03:44:40;101029.69;;;12.03;81.60
64095;BME280;50353;51.420;5.682;2022-12-20T03:47:05;101043.75;;;12.03;80.86
64095;BME280;50353;51.420;5.682;2022-12-20T03:49:31;101029.75;;;12.01;81.61
64095;BME280;50353;51.420;5.682;2022-12-20T03:51:56;101031.25;;;11.76;82.99
64095;BME280;50353;51.420;5.682;2022-12-20T03:54:21;101024.25;;;11.90;82.03
64095;BME280;50353;51.420;5.682;2022-12-20T03:56:46;101022.09;;;12.38;80.33
64095;BME280;50353;51.420;5.682;2022-12-20T03:59:12;101044.22;;;12.10;81.20
64095;BME280;50353;51.420;5.682;2022-12-20T04:01:37;101032.75;;;12.24;80.83
64095;BME280;50353;51.420;5.682;2022-12-20T04:04:03;101036.19;;;12.11;81.14
64095;BME280;50353;51.420;5.682;2022-12-20T04:06:29;101029.44;;;12.20;80.74
64095;BME280;50353;51.420;5.682;2022-12-20T04:08:54;101040.09;;;12.33;81.36
64095;BME280;50353;51.420;5.682;2022-12-20T04:11:20;101022.91;;;12.26;80.96
64095;BME280;50353;51.420;5.682;2022-12-20T04:13:50;101021.63;;;12.04;81.64
64095;BME280;50353;51.420;5.682;2022-12-20T04:16:18;101017.63;;;12.11;81.38
64095;BME280;50353;51.420;5.682;2022-12-20T04:18:44;101019.28;;;12.27;81.12
64095;BME280;50353;51.420;5.682;2022-12-20T04:21:10;101020.41;;;11.95;81.94
64095;BME280;50353;51.420;5.682;2022-12-20T04:23:37;101006.88;;;12.00;81.50
64095;BME280;50353;51.420;5.682;2022-12-20T04:26:04;101005.25;;;11.83;82.77
64095;BME280;50353;51.420;5.682;2022-12-20T04:28:30;101007.22;;;11.94;82.44
64095;BME280;50353;51.420;5.682;2022-12-20T04:30:55;100997.03;;;12.29;81.24
64095;BME280;50353;51.420;5.682;2022-12-20T04:33:22;100997.97;;;11.87;83.15
64095;BME280;50353;51.420;5.682;2022-12-20T04:35:47;101014.03;;;12.12;82.04
64095;BME280;50353;51.420;5.682;2022-12-20T04:38:13;100999.84;;;12.13;82.12
64095;BME280;50353;51.420;5.682;2022-12-20T04:40:39;101009.56;;;12.13;82.17
64095;BME280;50353;51.420;5.682;2022-12-20T04:43:04;100996.56;;;12.23;82.06
64095;BME280;50353;51.420;5.682;2022-12-20T04:45:29;101007.06;;;12.24;83.15
64095;BME280;50353;51.420;5.682;2022-12-20T04:47:55;101010.75;;;11.65;85.29
64095;BME280;50353;51.420;5.682;2022-12-20T04:50:20;101000.50;;;11.88;84.14
64095;BME280;50353;51.420;5.682;2022-12-20T04:52:45;101011.19;;;12.15;83.79
64095;BME280;50353;51.420;5.682;2022-12-20T04:55:29;100991.06;;;11.84;85.23
64095;BME280;50353;51.420;5.682;2022-12-20T04:57:55;100996.81;;;12.05;85.23
64095;BME280;50353;51.420;5.682;2022-12-20T05:00:20;100994.19;;;11.76;87.36
64095;BME280;50353;51.420;5.682;2022-12-20T05:02:46;101006.47;;;11.77;88.15
64095;BME280;50353;51.420;5.682;2022-12-20T05:05:11;101003.66;;;12.09;86.86
64095;BME280;50353;51.420;5.682;2022-12-20T05:07:38;100996.63;;;11.94;87.25
64095;BME280;50353;51.420;5.682;2022-12-20T05:10:03;100993.41;;;12.17;84.88
64095;BME280;50353;51.420;5.682;2022-12-20T05:12:29;100993.13;;;11.79;87.25
64095;BME280;50353;51.420;5.682;2022-12-20T05:14:54;100991.16;;;11.68;88.39
64095;BME280;50353;51.420;5.682;2022-12-20T05:17:19;100974.44;;;11.67;87.91
64095;BME280;50353;51.420;5.682;2022-12-20T05:19:45;100975.94;;;11.72;87.92
64095;BME280;50353;51.420;5.682;2022-12-20T05:22:10;100964.88;;;11.79;87.86
64095;BME280;50353;51.420;5.682;2022-12-20T05:24:54;100973.19;;;11.88;88.82
64095;BME280;50353;51.420;5.682;2022-12-20T05:27:38;100966.03;;;11.75;89.06
64095;BME280;50353;51.420;5.682;2022-12-20T05:30:04;100961.28;;;11.66;88.69
64095;BME280;50353;51.420;5.682;2022-12-20T05:32:29;100957.97;;;12.18;86.20
64095;BME280;50353;51.420;5.682;2022-12-20T05:34:54;100955.69;;;11.85;87.00
64095;BME280;50353;51.420;5.682;2022-12-20T05:37:20;100963.72;;;11.83;87.46
64095;BME280;50353;51.420;5.682;2022-12-20T05:39:45;100965.44;;;11.56;87.69
64095;BME280;50353;51.420;5.682;2022-12-20T05:42:11;100961.66;;;11.16;90.27
64095;BME280;50353;51.420;5.682;2022-12-20T05:44:36;100963.66;;;11.27;89.97
64095;BME280;50353;51.420;5.682;2022-12-20T05:47:01;100960.84;;;11.30;89.85
64095;BME280;50353;51.420;5.682;2022-12-20T05:49:27;100943.34;;;10.99;90.92
64095;BME280;50353;51.420;5.682;2022-12-20T05:51:52;100946.75;;;11.15;90.19
64095;BME280;50353;51.420;5.682;2022-12-20T05:54:17;100950.25;;;11.16;89.69
64095;BME280;50353;51.420;5.682;2022-12-20T05:56:42;100953.72;;;11.16;89.24
64095;BME280;50353;51.420;5.682;2022-12-20T05:59:08;100942.75;;;11.66;88.10
64095;BME280;50353;51.420;5.682;2022-12-20T06:01:33;100944.09;;;11.15;89.62
64095;BME280;50353;51.420;5.682;2022-12-20T06:03:59;100944.19;;;11.43;87.82
64095;BME280;50353;51.420;5.682;2022-12-20T06:06:24;100927.75;;;11.23;87.79
64095;BME280;50353;51.420;5.682;2022-12-20T06:08:49;100930.75;;;11.31;87.54
64095;BME280;50353;51.420;5.682;2022-12-20T06:11:15;100923.31;;;11.24;87.62
64095;BME280;50353;51.420;5.682;2022-12-20T06:13:40;100924.06;;;11.26;87.97
64095;BME280;50353;51.420;5.682;2022-12-20T06:16:05;100909.03;;;11.41;87.09
64095;BME280;50353;51.420;5.682;2022-12-20T06:18:31;100903.56;;;11.15;87.60
64095;BME280;50353;51.420;5.682;2022-12-20T06:20:56;100901.38;;;10.93;89.07
64095;BME280;50353;51.420;5.682;2022-12-20T06:23:21;100897.44;;;11.29;86.80
64095;BME280;50353;51.420;5.682;2022-12-20T06:25:47;100897.69;;;11.24;86.81
64095;BME280;50353;51.420;5.682;2022-12-20T06:28:12;100908.84;;;11.01;87.84
64095;BME280;50353;51.420;5.682;2022-12-20T06:30:38;100910.16;;;10.93;88.05
64095;BME280;50353;51.420;5.682;2022-12-20T06:33:03;100907.75;;;10.74;89.27
64095;BME280;50353;51.420;5.682;2022-12-20T06:35:29;100916.38;;;10.78;88.79
64095;BME280;50353;51.420;5.682;2022-12-20T06:37:54;100908.00;;;11.00;87.70
64095;BME280;50353;51.420;5.682;2022-12-20T06:40:20;100906.69;;;11.07;87.03
64095;BME280;50353;51.420;5.682;2022-12-20T06:42:45;100914.03;;;10.88;88.25
64095;BME280;50353;51.420;5.682;2022-12-20T06:45:11;100911.97;;;10.93;87.31
64095;BME280;50353;51.420;5.682;2022-12-20T06:47:36;100905.91;;;11.05;87.37
64095;BME280;50353;51.420;5.682;2022-12-20T06:50:03;100907.31;;;10.82;87.71
64095;BME280;50353;51.420;5.682;2022-12-20T06:52:28;100903.16;;;10.78;87.74
64095;BME280;50353;51.420;5.682;2022-12-20T06:54:54;100890.03;;;11.05;86.91
64095;BME280;50353;51.420;5.682;2022-12-20T06:57:19;100883.06;;;10.90;86.51
64095;BME280;50353;51.420;5.682;2022-12-20T06:59:44;100889.38;;;10.87;86.36
64095;BME280;50353;51.420;5.682;2022-12-20T07:02:10;100884.53;;;10.65;87.30
64095;BME280;50353;51.420;5.682;2022-12-20T07:04:36;100885.69;;;10.75;86.54
64095;BME280;50353;51.420;5.682;2022-12-20T07:07:02;100900.81;;;10.88;86.39
64095;BME280;50353;51.420;5.682;2022-12-20T07:09:27;100903.28;;;10.91;85.77
64095;BME280;50353;51.420;5.682;2022-12-20T07:11:53;100902.50;;;10.89;85.67
64095;BME280;50353;51.420;5.682;2022-12-20T07:14:18;100909.22;;;10.80;86.43
64095;BME280;50353;51.420;5.682;2022-12-20T07:16:43;100913.28;;;11.14;85.19
64095;BME280;50353;51.420;5.682;2022-12-20T07:19:13;100908.63;;;10.89;85.51
64095;BME280;50353;51.420;5.682;2022-12-20T07:21:39;100909.59;;;10.88;85.15
64095;BME280;50353;51.420;5.682;2022-12-20T07:24:05;100905.25;;;10.87;85.16
64095;BME280;50353;51.420;5.682;2022-12-20T07:26:30;100900.53;;;10.92;84.82
64095;BME280;50353;51.420;5.682;2022-12-20T07:28:56;100901.97;;;10.98;84.23
64095;BME280;50353;51.420;5.682;2022-12-20T07:31:21;100896.47;;;11.30;82.38
64095;BME280;50353;51.420;5.682;2022-12-20T07:33:46;100901.47;;;11.35;82.83
64095;BME280;50353;51.420;5.682;2022-12-20T07:36:13;100907.56;;;11.78;80.34
64095;BME280;50353;51.420;5.682;2022-12-20T07:38:40;100903.16;;;11.36;81.42
64095;BME280;50353;51.420;5.682;2022-12-20T07:41:12;100908.91;;;11.71;79.84
64095;BME280;50353;51.420;5.682;2022-12-20T07:43:39;100909.31;;;11.92;79.65
64095;BME280;50353;51.420;5.682;2022-12-20T07:46:05;100905.63;;;11.80;79.34
64095;BME280;50353;51.420;5.682;2022-12-20T07:48:31;100907.13;;;11.99;78.12
64095;BME280;50353;51.420;5.682;2022-12-20T07:51:02;100903.09;;;12.21;77.59
64095;BME280;50353;51.420;5.682;2022-12-20T07:53:30;100900.38;;;12.08;78.08
64095;BME280;50353;51.420;5.682;2022-12-20T07:55:57;100890.19;;;11.60;79.50
64095;BME280;50353;51.420;5.682;2022-12-20T07:58:24;100893.03;;;11.57;79.86
64095;BME280;50353;51.420;5.682;2022-12-20T08:00:51;100893.78;;;11.86;78.66
64095;BME280;50353;51.420;5.682;2022-12-20T08:05:45;100910.09;;;12.22;77.38
64095;BME280;50353;51.420;5.682;2022-12-20T08:08:11;100915.53;;;12.33;77.03
64095;BME280;50353;51.420;5.682;2022-12-20T08:10:37;100923.19;;;12.10;78.08
64095;BME280;50353;51.420;5.682;2022-12-20T08:13:04;100918.44;;;12.15;78.93
64095;BME280;50353;51.420;5.682;2022-12-20T08:15:30;100922.19;;;12.26;78.53
64095;BME280;50353;51.420;5.682;2022-12-20T08:17:57;100916.31;;;11.93;79.81
64095;BME280;50353;51.420;5.682;2022-12-20T08:20:22;100922.19;;;12.26;78.58
64095;BME280;50353;51.420;5.682;2022-12-20T08:22:48;100921.22;;;11.99;79.89
64095;BME280;50353;51.420;5.682;2022-12-20T08:25:13;100926.63;;;11.98;80.11
64095;BME280;50353;51.420;5.682;2022-12-20T08:27:38;100917.28;;;11.78;82.03
64095;BME280;50353;51.420;5.682;2022-12-20T08:30:05;100927.19;;;11.89;81.47
64095;BME280;50353;51.420;5.682;2022-12-20T08:32:32;100923.69;;;11.88;81.24
64095;BME280;50353;51.420;5.682;2022-12-20T08:34:57;100917.94;;;12.23;80.03
64095;BME280;50353;51.420;5.682;2022-12-20T08:37:23;100911.81;;;11.81;81.49
64095;BME280;50353;51.420;5.682;2022-12-20T08:39:48;100924.16;;;12.09;79.83
64095;BME280;50353;51.420;5.682;2022-12-20T08:42:13;100915.41;;;11.94;80.80
64095;BME280;50353;51.420;5.682;2022-12-20T08:44:39;100915.78;;;12.15;80.20
64095;BME280;50353;51.420;5.682;2022-12-20T08:47:04;100905.69;;;12.08;80.31
64095;BME280;50353;51.420;5.682;2022-12-20T08:49:29;100908.13;;;12.51;78.52
64095;BME280;50353;51.420;5.682;2022-12-20T08:51:55;100903.28;;;12.17;79.24
64095;BME280;50353;51.420;5.682;2022-12-20T08:54:20;100905.41;;;12.25;80.13
64095;BME280;50353;51.420;5.682;2022-12-20T08:56:45;100895.28;;;12.05;80.90
64095;BME280;50353;51.420;5.682;2022-12-20T08:59:10;100896.97;;;12.33;79.71
64095;BME280;50353;51.420;5.682;2022-12-20T09:01:36;100899.16;;;12.13;80.71
64095;BME280;50353;51.420;5.682;2022-12-20T09:04:02;100900.81;;;12.14;79.84
64095;BME280;50353;51.420;5.682;2022-12-20T09:06:28;100892.50;;;12.33;79.91
64095;BME280;50353;51.420;5.682;2022-12-20T09:08:53;100891.00;;;12.16;80.46
64095;BME280;50353;51.420;5.682;2022-12-20T09:11:24;100901.50;;;12.31;80.68
64095;BME280;50353;51.420;5.682;2022-12-20T09:13:51;100888.59;;;11.84;82.52
64095;BME280;50353;51.420;5.682;2022-12-20T09:16:20;100877.91;;;12.00;81.80
64095;BME280;50353;51.420;5.682;2022-12-20T09:18:50;100882.88;;;12.32;79.61
64095;BME280;50353;51.420;5.682;2022-12-20T09:21:16;100888.03;;;12.21;80.47
64095;BME280;50353;51.420;5.682;2022-12-20T09:23:41;100881.78;;;12.35;80.21
64095;BME280;50353;51.420;5.682;2022-12-20T09:26:10;100903.69;;;12.11;81.40
64095;BME280;50353;51.420;5.682;2022-12-20T09:28:35;100894.25;;;12.07;81.70
64095;BME280;50353;51.420;5.682;2022-12-20T09:31:03;100891.22;;;12.26;80.96
64095;BME280;50353;51.420;5.682;2022-12-20T09:33:29;100886.16;;;11.96;82.16
64095;BME280;50353;51.420;5.682;2022-12-20T09:35:56;100899.94;;;12.41;81.82
64095;BME280;50353;51.420;5.682;2022-12-20T09:38:21;100892.06;;;12.27;81.39
64095;BME280;50353;51.420;5.682;2022-12-20T09:40:49;100884.44;;;12.35;81.44
64095;BME280;50353;51.420;5.682;2022-12-20T09:43:16;100882.72;;;12.21;82.01
64095;BME280;50353;51.420;5.682;2022-12-20T09:45:42;100891.22;;;12.26;82.29
64095;BME280;50353;51.420;5.682;2022-12-20T09:48:18;100883.38;;;12.25;82.10
64095;BME280;50353;51.420;5.682;2022-12-20T09:56:23;100892.41;;;12.35;81.52
64095;BME280;50353;51.420;5.682;2022-12-20T09:59:01;100883.44;;;12.50;81.06
64095;BME280;50353;51.420;5.682;2022-12-20T10:01:29;100875.75;;;12.33;81.56
64095;BME280;50353;51.420;5.682;2022-12-20T10:03:56;100879.56;;;12.29;82.71
64095;BME280;50353;51.420;5.682;2022-12-20T10:08:54;100878.00;;;11.84;83.93
64095;BME280;50353;51.420;5.682;2022-12-20T10:12:02;100891.91;;;12.43;82.06
64095;BME280;50353;51.420;5.682;2022-12-20T10:17:04;100870.56;;;12.31;81.57
64095;BME280;50353;51.420;5.682;2022-12-20T10:20:06;100876.00;;;12.03;83.17
64095;BME280;50353;51.420;5.682;2022-12-20T10:22:42;100867.75;;;11.93;83.53
64095;BME280;50353;51.420;5.682;2022-12-20T10:25:19;100867.94;;;12.04;83.02
64095;BME280;50353;51.420;5.682;2022-12-20T10:27:48;100870.03;;;12.39;81.43
64095;BME280;50353;51.420;5.682;2022-12-20T10:30:25;100865.78;;;12.24;81.78
64095;BME280;50353;51.420;5.682;2022-12-20T10:32:53;100873.66;;;12.51;81.49
64095;BME280;50353;51.420;5.682;2022-12-20T10:35:27;100871.19;;;12.35;81.62
64095;BME280;50353;51.420;5.682;2022-12-20T10:40:38;100879.09;;;12.75;82.74
64095;BME280;50353;51.420;5.682;2022-12-20T10:43:05;100865.31;;;12.17;85.07
64095;BME280;50353;51.420;5.682;2022-12-20T10:45:39;100875.34;;;12.39;85.53
64095;BME280;50353;51.420;5.682;2022-12-20T10:48:24;100863.13;;;12.24;86.69
64095;BME280;50353;51.420;5.682;2022-12-20T10:51:02;100866.16;;;12.05;89.67
64095;BME280;50353;51.420;5.682;2022-12-20T10:53:30;100863.63;;;12.16;89.36
64095;BME280;50353;51.420;5.682;2022-12-20T10:56:26;100852.34;;;12.52;88.25
64095;BME280;50353;51.420;5.682;2022-12-20T11:01:28;100841.03;;;11.83;92.98
64095;BME280;50353;51.420;5.682;2022-12-20T11:06:46;100840.91;;;11.99;92.16
64095;BME280;50353;51.420;5.682;2022-12-20T11:09:23;100848.63;;;11.75;93.02
64095;BME280;50353;51.420;5.682;2022-12-20T11:12:03;100849.22;;;12.20;91.52
64095;BME280;50353;51.420;5.682;2022-12-20T11:14:31;100842.53;;;11.87;92.77
64095;BME280;50353;51.420;5.682;2022-12-20T11:16:58;100835.13;;;12.07;93.06
64095;BME280;50353;51.420;5.682;2022-12-20T11:20:03;100837.19;;;11.74;94.51
64095;BME280;50353;51.420;5.682;2022-12-20T11:25:51;100824.44;;;11.66;95.83
64095;BME280;50353;51.420;5.682;2022-12-20T11:28:34;100833.41;;;11.78;94.04
64095;BME280;50353;51.420;5.682;2022-12-20T11:31:08;100830.31;;;11.84;94.37
64095;BME280;50353;51.420;5.682;2022-12-20T11:33:51;100827.78;;;11.56;95.28
64095;BME280;50353;51.420;5.682;2022-12-20T11:39:11;100820.50;;;11.87;93.92
64095;BME280;50353;51.420;5.682;2022-12-20T11:41:49;100822.00;;;11.91;93.75
64095;BME280;50353;51.420;5.682;2022-12-20T11:50:19;100825.25;;;11.81;93.12
64095;BME280;50353;51.420;5.682;2022-12-20T11:52:53;100827.28;;;11.91;94.72
64095;BME280;50353;51.420;5.682;2022-12-20T11:55:24;100819.25;;;11.92;93.46
64095;BME280;50353;51.420;5.682;2022-12-20T12:00:25;100814.16;;;11.89;93.61
64095;BME280;50353;51.420;5.682;2022-12-20T12:03:07;100813.09;;;11.92;94.47
64095;BME280;50353;51.420;5.682;2022-12-20T12:05:43;100810.19;;;11.82;94.37
64095;BME280;50353;51.420;5.682;2022-12-20T12:08:18;100818.44;;;11.77;94.83
64095;BME280;50353;51.420;5.682;2022-12-20T12:11:07;100811.75;;;11.72;94.73
64095;BME280;50353;51.420;5.682;2022-12-20T12:13:38;100797.13;;;11.66;95.67
64095;BME280;50353;51.420;5.682;2022-12-20T12:16:08;100805.97;;;12.07;93.33
64095;BME280;50353;51.420;5.682;2022-12-20T12:18:35;100798.47;;;12.65;90.91
64095;BME280;50353;51.420;5.682;2022-12-20T12:21:22;100802.25;;;12.09;92.87
64095;BME280;50353;51.420;5.682;2022-12-20T12:26:49;100805.56;;;12.26;91.84
64095;BME280;50353;51.420;5.682;2022-12-20T12:29:16;100808.34;;;12.37;92.46
64095;BME280;50353;51.420;5.682;2022-12-20T12:31:57;100795.38;;;12.07;93.61
64095;BME280;50353;51.420;5.682;2022-12-20T12:45:32;100798.84;;;11.94;95.65
64095;BME280;50353;51.420;5.682;2022-12-20T12:48:13;100796.41;;;12.04;93.93
64095;BME280;50353;51.420;5.682;2022-12-20T12:50:48;100793.97;;;11.46;98.05
64095;BME280;50353;51.420;5.682;2022-12-20T12:53:25;100799.91;;;11.50;99.05
64095;BME280;50353;51.420;5.682;2022-12-20T12:55:56;100797.06;;;11.80;97.32
64095;BME280;50353;51.420;5.682;2022-12-20T13:00:50;100795.72;;;11.33;99.87
64095;BME280;50353;51.420;5.682;2022-12-20T13:03:44;100805.09;;;11.79;100.00
64095;BME280;50353;51.420;5.682;2022-12-20T13:11:39;100794.13;;;11.58;100.00
64095;BME280;50353;51.420;5.682;2022-12-20T13:16:47;100791.47;;;11.85;96.70
64095;BME280;50353;51.420;5.682;2022-12-20T13:21:56;100786.66;;;11.77;96.76
64095;BME280;50353;51.420;5.682;2022-12-20T13:38:01;100766.91;;;11.28;100.00
64095;BME280;50353;51.420;5.682;2022-12-20T13:40:59;100771.88;;;11.88;96.89
64095;BME280;50353;51.420;5.682;2022-12-20T13:43:28;100779.78;;;11.47;100.00
64095;BME280;50353;51.420;5.682;2022-12-20T13:48:39;100783.19;;;12.04;96.30
64095;BME280;50353;51.420;5.682;2022-12-20T13:51:06;100780.75;;;12.14;95.31
64095;BME280;50353;51.420;5.682;2022-12-20T13:53:33;100782.84;;;11.96;96.75
64095;BME280;50353;51.420;5.682;2022-12-20T13:58:54;100783.47;;;11.99;95.00
64095;BME280;50353;51.420;5.682;2022-12-20T14:01:22;100782.84;;;11.96;95.70
64095;BME280;50353;51.420;5.682;2022-12-20T14:03:49;100778.63;;;11.52;98.66
64095;BME280;50353;51.420;5.682;2022-12-20T14:06:17;100780.56;;;11.49;98.81
64095;BME280;50353;51.420;5.682;2022-12-20T14:08:47;100778.84;;;11.48;99.65
64095;BME280;50353;51.420;5.682;2022-12-20T14:11:16;100771.81;;;11.35;100.00
64095;BME280;50353;51.420;5.682;2022-12-20T14:13:51;100778.44;;;11.55;97.35
64095;BME280;50353;51.420;5.682;2022-12-20T14:16:19;100777.25;;;11.46;99.20
64095;BME280;50353;51.420;5.682;2022-12-20T14:21:22;100777.03;;;11.22;100.00
64095;BME280;50353;51.420;5.682;2022-12-20T14:23:50;100774.84;;;10.87;100.00
64095;BME280;50353;51.420;5.682;2022-12-20T14:26:21;100772.09;;;11.30;99.73
64095;BME280;50353;51.420;5.682;2022-12-20T14:28:50;100780.66;;;11.06;100.00
64095;BME280;50353;51.420;5.682;2022-12-20T14:36:27;100776.75;;;11.26;100.00
64095;BME280;50353;51.420;5.682;2022-12-20T14:38:54;100777.13;;;11.47;99.17